sensor_id;sensor_type;location;lat;lon;timestamp;pressure;altitude;pressure_sealevel;temperature;humidity
52745;BME280;38637;49.984;20.426;2023-05-10T00:01:23;99678.69;;;8.09;60.03
52745;BME280;38637;49.984;20.426;2023-05-10T00:03:49;99672.56;;;8.02;60.29
52745;BME280;38637;49.984;20.426;2023-05-10T00:06:15;99684.25;;;8.02;60.40
52745;BME280;38637;49.984;20.426;2023-05-10T00:08:40;99680.13;;;8.00;60.67
52745;BME280;38637;49.984;20.426;2023-05-10T00:11:05;99680.59;;;7.97;60.65
52745;BME280;38637;49.984;20.426;2023-05-10T00:13:31;99673.13;;;7.92;60.80
52745;BME280;38637;49.984;20.426;2023-05-10T00:15:57;99676.31;;;7.89;61.17
52745;BME280;38637;49.984;20.426;2023-05-10T00:18:22;99667.22;;;7.83;61.50
52745;BME280;38637;49.984;20.426;2023-05-10T00:20:47;99671.59;;;7.85;61.36
52745;BME280;38637;49.984;20.426;2023-05-10T00:23:14;99669.00;;;7.78;61.59
52745;BME280;38637;49.984;20.426;2023-05-10T00:25:39;99670.03;;;7.77;61.65
52745;BME280;38637;49.984;20.426;2023-05-10T00:28:05;99667.44;;;7.70;61.84
52745;BME280;38637;49.984;20.426;2023-05-10T00:30:30;99675.59;;;7.70;61.74
52745;BME280;38637;49.984;20.426;2023-05-10T00:32:55;99672.28;;;7.68;61.74
52745;BME280;38637;49.984;20.426;2023-05-10T00:35:20;99669.00;;;7.66;62.03
52745;BME280;38637;49.984;20.426;2023-05-10T00:37:46;99668.16;;;7.66;62.17
52745;BME280;38637;49.984;20.426;2023-05-10T00:40:12;99658.34;;;7.65;62.28
52745;BME280;38637;49.984;20.426;2023-05-10T00:42:37;99663.78;;;7.65;62.24
52745;BME280;38637;49.984;20.426;2023-05-10T00:45:03;99658.13;;;7.66;62.53
52745;BME280;38637;49.984;20.426;2023-05-10T00:47:28;99658.34;;;7.65;62.75
52745;BME280;38637;49.984;20.426;2023-05-10T00:49:54;99663.19;;;7.63;62.65
52745;BME280;38637;49.984;20.426;2023-05-10T00:52:20;99659.28;;;7.58;62.88
52745;BME280;38637;49.984;20.426;2023-05-10T00:54:48;99663.28;;;7.56;62.95
52745;BME280;38637;49.984;20.426;2023-05-10T00:57:14;99654.78;;;7.52;63.29
52745;BME280;38637;49.984;20.426;2023-05-10T00:59:39;99655.59;;;7.53;63.14
52745;BME280;38637;49.984;20.426;2023-05-10T01:02:06;99650.41;;;7.51;63.14
52745;BME280;38637;49.984;20.426;2023-05-10T01:04:31;99646.88;;;7.51;63.12
52745;BME280;38637;49.984;20.426;2023-05-10T01:06:57;99647.72;;;7.51;63.41
52745;BME280;38637;49.984;20.426;2023-05-10T01:09:22;99653.34;;;7.50;62.91
52745;BME280;38637;49.984;20.426;2023-05-10T01:11:48;99636.47;;;7.48;63.16
52745;BME280;38637;49.984;20.426;2023-05-10T01:14:14;99643.81;;;7.47;63.42
52745;BME280;38637;49.984;20.426;2023-05-10T01:16:44;99640.25;;;7.47;63.33
52745;BME280;38637;49.984;20.426;2023-05-10T01:19:26;99634.72;;;7.42;63.59
52745;BME280;38637;49.984;20.426;2023-05-10T01:22:06;99647.09;;;7.37;63.75
52745;BME280;38637;49.984;20.426;2023-05-10T01:33:19;99637.41;;;7.30;64.45
52745;BME280;38637;49.984;20.426;2023-05-10T01:38:22;99628.28;;;7.24;65.03
52745;BME280;38637;49.984;20.426;2023-05-10T01:41:13;99624.41;;;7.20;64.82
52745;BME280;38637;49.984;20.426;2023-05-10T01:43:55;99627.59;;;7.17;64.97
52745;BME280;38637;49.984;20.426;2023-05-10T01:46:35;99619.06;;;7.13;65.29
52745;BME280;38637;49.984;20.426;2023-05-10T01:49:03;99623.28;;;7.09;65.44
52745;BME280;38637;49.984;20.426;2023-05-10T01:51:45;99622.94;;;7.06;65.46
52745;BME280;38637;49.984;20.426;2023-05-10T01:54:13;99627.19;;;7.02;65.73
52745;BME280;38637;49.984;20.426;2023-05-10T01:56:39;99629.28;;;7.00;65.89
52745;BME280;38637;49.984;20.426;2023-05-10T01:59:12;99623.50;;;6.96;66.03
52745;BME280;38637;49.984;20.426;2023-05-10T02:01:39;99629.41;;;6.93;66.06
52745;BME280;38637;49.984;20.426;2023-05-10T02:04:07;99624.44;;;6.90;66.00
52745;BME280;38637;49.984;20.426;2023-05-10T02:06:34;99610.50;;;6.86;66.24
52745;BME280;38637;49.984;20.426;2023-05-10T02:09:01;99623.63;;;6.89;66.44
52745;BME280;38637;49.984;20.426;2023-05-10T02:11:26;99615.31;;;6.84;66.49
52745;BME280;38637;49.984;20.426;2023-05-10T02:13:53;99614.16;;;6.80;66.63
52745;BME280;38637;49.984;20.426;2023-05-10T02:16:23;99603.50;;;6.79;66.99
52745;BME280;38637;49.984;20.426;2023-05-10T02:18:52;99616.50;;;6.77;67.01
52745;BME280;38637;49.984;20.426;2023-05-10T02:21:19;99610.00;;;6.78;67.21
52745;BME280;38637;49.984;20.426;2023-05-10T02:23:46;99607.28;;;6.78;67.28
52745;BME280;38637;49.984;20.426;2023-05-10T02:26:13;99609.19;;;6.77;67.30
52745;BME280;38637;49.984;20.426;2023-05-10T02:28:40;99602.06;;;6.76;67.29
52745;BME280;38637;49.984;20.426;2023-05-10T02:31:06;99610.69;;;6.73;67.70
52745;BME280;38637;49.984;20.426;2023-05-10T02:33:33;99604.88;;;6.70;67.79
52745;BME280;38637;49.984;20.426;2023-05-10T02:35:59;99597.56;;;6.70;67.63
52745;BME280;38637;49.984;20.426;2023-05-10T02:38:26;99606.78;;;6.69;67.94
52745;BME280;38637;49.984;20.426;2023-05-10T02:40:52;99604.66;;;6.71;67.81
52745;BME280;38637;49.984;20.426;2023-05-10T02:43:20;99599.25;;;6.71;67.79
52745;BME280;38637;49.984;20.426;2023-05-10T02:45:48;99593.81;;;6.71;67.82
52745;BME280;38637;49.984;20.426;2023-05-10T02:48:14;99601.97;;;6.71;67.71
52745;BME280;38637;49.984;20.426;2023-05-10T02:50:43;99595.47;;;6.72;68.13
52745;BME280;38637;49.984;20.426;2023-05-10T02:53:11;99591.94;;;6.72;67.87
52745;BME280;38637;49.984;20.426;2023-05-10T02:55:40;99599.34;;;6.76;67.75
52745;BME280;38637;49.984;20.426;2023-05-10T02:58:08;99593.94;;;6.76;68.07
52745;BME280;38637;49.984;20.426;2023-05-10T03:00:33;99596.66;;;6.76;68.25
52745;BME280;38637;49.984;20.426;2023-05-10T03:02:58;99587.47;;;6.77;68.24
52745;BME280;38637;49.984;20.426;2023-05-10T03:05:24;99601.59;;;6.79;68.08
52745;BME280;38637;49.984;20.426;2023-05-10T03:07:49;99597.59;;;6.82;68.12
52745;BME280;38637;49.984;20.426;2023-05-10T03:10:16;99583.06;;;6.76;68.15
52745;BME280;38637;49.984;20.426;2023-05-10T03:13:06;99585.25;;;6.86;68.28
52745;BME280;38637;49.984;20.426;2023-05-10T03:15:44;99593.75;;;6.89;67.81
52745;BME280;38637;49.984;20.426;2023-05-10T03:18:22;99596.56;;;6.95;68.13
52745;BME280;38637;49.984;20.426;2023-05-10T03:20:50;99590.69;;;6.98;67.86
52745;BME280;38637;49.984;20.426;2023-05-10T03:23:35;99591.91;;;7.02;67.78
52745;BME280;38637;49.984;20.426;2023-05-10T03:26:00;99593.53;;;7.03;67.79
52745;BME280;38637;49.984;20.426;2023-05-10T03:28:26;99585.75;;;7.06;68.03
52745;BME280;38637;49.984;20.426;2023-05-10T03:30:53;99595.56;;;7.07;67.89
52745;BME280;38637;49.984;20.426;2023-05-10T03:33:19;99597.09;;;7.15;67.66
52745;BME280;38637;49.984;20.426;2023-05-10T03:35:45;99586.03;;;7.17;67.45
52745;BME280;38637;49.984;20.426;2023-05-10T03:38:11;99590.97;;;7.20;67.44
52745;BME280;38637;49.984;20.426;2023-05-10T03:40:37;99588.38;;;7.25;67.27
52745;BME280;38637;49.984;20.426;2023-05-10T03:43:02;99587.09;;;7.27;67.54
52745;BME280;38637;49.984;20.426;2023-05-10T03:45:28;99597.84;;;7.34;67.35
52745;BME280;38637;49.984;20.426;2023-05-10T03:47:53;99583.56;;;7.39;67.37
52745;BME280;38637;49.984;20.426;2023-05-10T03:50:19;99585.19;;;7.40;67.21
52745;BME280;38637;49.984;20.426;2023-05-10T03:52:44;99584.75;;;7.54;67.13
52745;BME280;38637;49.984;20.426;2023-05-10T03:55:10;99585.22;;;7.63;66.85
52745;BME280;38637;49.984;20.426;2023-05-10T03:57:35;99580.72;;;7.69;66.96
52745;BME280;38637;49.984;20.426;2023-05-10T04:00:01;99585.56;;;7.78;66.31
52745;BME280;38637;49.984;20.426;2023-05-10T04:02:27;99589.69;;;7.93;66.58
52745;BME280;38637;49.984;20.426;2023-05-10T04:04:52;99594.38;;;8.09;66.27
52745;BME280;38637;49.984;20.426;2023-05-10T04:07:18;99587.84;;;8.22;65.81
52745;BME280;38637;49.984;20.426;2023-05-10T04:09:43;99585.31;;;8.32;65.12
52745;BME280;38637;49.984;20.426;2023-05-10T04:12:08;99591.94;;;8.48;65.33
52745;BME280;38637;49.984;20.426;2023-05-10T04:14:34;99588.16;;;8.66;65.15
52745;BME280;38637;49.984;20.426;2023-05-10T04:16:59;99590.19;;;8.87;64.36
52745;BME280;38637;49.984;20.426;2023-05-10T04:19:29;99584.53;;;9.06;63.42
52745;BME280;38637;49.984;20.426;2023-05-10T04:21:54;99593.81;;;9.22;63.18
52745;BME280;38637;49.984;20.426;2023-05-10T04:24:19;99593.56;;;9.40;62.56
52745;BME280;38637;49.984;20.426;2023-05-10T04:26:45;99592.69;;;9.56;61.38
52745;BME280;38637;49.984;20.426;2023-05-10T04:29:10;99586.38;;;9.73;61.12
52745;BME280;38637;49.984;20.426;2023-05-10T04:31:36;99587.69;;;9.87;61.10
52745;BME280;38637;49.984;20.426;2023-05-10T04:34:01;99589.22;;;10.00;60.26
52745;BME280;38637;49.984;20.426;2023-05-10T04:36:26;99590.75;;;10.12;60.24
52745;BME280;38637;49.984;20.426;2023-05-10T04:38:52;99587.06;;;10.24;59.50
52745;BME280;38637;49.984;20.426;2023-05-10T04:41:18;99585.38;;;10.40;59.25
52745;BME280;38637;49.984;20.426;2023-05-10T04:43:43;99586.34;;;10.50;58.51
52745;BME280;38637;49.984;20.426;2023-05-10T04:46:08;99577.13;;;10.56;57.98
52745;BME280;38637;49.984;20.426;2023-05-10T04:48:34;99580.25;;;10.70;57.95
52745;BME280;38637;49.984;20.426;2023-05-10T04:50:59;99583.13;;;10.80;57.57
52745;BME280;38637;49.984;20.426;2023-05-10T04:53:24;99581.81;;;10.88;57.40
52745;BME280;38637;49.984;20.426;2023-05-10T04:55:50;99577.81;;;10.96;57.22
52745;BME280;38637;49.984;20.426;2023-05-10T04:58:15;99574.28;;;11.00;56.38
52745;BME280;38637;49.984;20.426;2023-05-10T05:00:41;99573.00;;;11.08;56.75
52745;BME280;38637;49.984;20.426;2023-05-10T05:03:06;99579.88;;;11.16;56.71
52745;BME280;38637;49.984;20.426;2023-05-10T05:05:32;99574.19;;;11.22;56.80
52745;BME280;38637;49.984;20.426;2023-05-10T05:07:57;99574.53;;;11.31;56.65
52745;BME280;38637;49.984;20.426;2023-05-10T05:10:22;99572.44;;;11.43;56.34
52745;BME280;38637;49.984;20.426;2023-05-10T05:12:48;99569.22;;;11.52;56.30
52745;BME280;38637;49.984;20.426;2023-05-10T05:15:13;99565.97;;;11.60;56.07
52745;BME280;38637;49.984;20.426;2023-05-10T05:17:40;99578.34;;;11.67;55.37
52745;BME280;38637;49.984;20.426;2023-05-10T05:20:05;99558.16;;;11.73;54.85
52745;BME280;38637;49.984;20.426;2023-05-10T05:22:31;99564.47;;;11.79;55.05
52745;BME280;38637;49.984;20.426;2023-05-10T05:24:57;99573.03;;;11.88;55.24
52745;BME280;38637;49.984;20.426;2023-05-10T05:27:23;99573.63;;;11.95;55.01
52745;BME280;38637;49.984;20.426;2023-05-10T05:29:52;99574.75;;;12.04;54.74
52745;BME280;38637;49.984;20.426;2023-05-10T05:32:18;99575.63;;;12.10;54.58
52745;BME280;38637;49.984;20.426;2023-05-10T05:34:46;99570.72;;;12.17;54.44
52745;BME280;38637;49.984;20.426;2023-05-10T05:37:13;99576.75;;;12.24;53.80
52745;BME280;38637;49.984;20.426;2023-05-10T05:39:39;99574.31;;;12.33;53.79
52745;BME280;38637;49.984;20.426;2023-05-10T05:42:04;99573.25;;;12.39;53.53
52745;BME280;38637;49.984;20.426;2023-05-10T05:44:30;99582.88;;;12.47;53.34
52745;BME280;38637;49.984;20.426;2023-05-10T05:46:55;99568.94;;;12.53;52.97
52745;BME280;38637;49.984;20.426;2023-05-10T05:49:20;99570.84;;;12.58;52.77
52745;BME280;38637;49.984;20.426;2023-05-10T05:51:46;99577.97;;;12.64;53.17
52745;BME280;38637;49.984;20.426;2023-05-10T05:54:12;99575.81;;;12.71;52.92
52745;BME280;38637;49.984;20.426;2023-05-10T05:56:38;99588.69;;;12.76;52.67
52745;BME280;38637;49.984;20.426;2023-05-10T05:59:03;99573.63;;;12.78;52.88
52745;BME280;38637;49.984;20.426;2023-05-10T06:01:28;99576.66;;;12.82;52.66
52745;BME280;38637;49.984;20.426;2023-05-10T06:03:54;99576.13;;;12.85;52.11
52745;BME280;38637;49.984;20.426;2023-05-10T06:06:19;99577.78;;;12.86;52.26
52745;BME280;38637;49.984;20.426;2023-05-10T06:08:44;99577.75;;;12.91;52.45
52745;BME280;38637;49.984;20.426;2023-05-10T06:11:10;99570.09;;;12.93;52.77
52745;BME280;38637;49.984;20.426;2023-05-10T06:13:36;99574.22;;;12.96;52.35
52745;BME280;38637;49.984;20.426;2023-05-10T06:16:02;99576.41;;;12.99;51.92
52745;BME280;38637;49.984;20.426;2023-05-10T06:18:27;99576.41;;;13.04;52.12
52745;BME280;38637;49.984;20.426;2023-05-10T06:20:52;99576.72;;;13.07;51.88
52745;BME280;38637;49.984;20.426;2023-05-10T06:23:18;99572.31;;;13.11;52.10
52745;BME280;38637;49.984;20.426;2023-05-10T06:25:43;99580.00;;;13.15;51.74
52745;BME280;38637;49.984;20.426;2023-05-10T06:28:08;99570.97;;;13.19;51.58
52745;BME280;38637;49.984;20.426;2023-05-10T06:30:36;99576.16;;;13.21;51.45
52745;BME280;38637;49.984;20.426;2023-05-10T06:33:01;99570.72;;;13.26;51.23
52745;BME280;38637;49.984;20.426;2023-05-10T06:35:27;99578.91;;;13.31;50.97
52745;BME280;38637;49.984;20.426;2023-05-10T06:37:53;99569.06;;;13.35;51.98
52745;BME280;38637;49.984;20.426;2023-05-10T06:40:18;99574.00;;;13.38;51.87
52745;BME280;38637;49.984;20.426;2023-05-10T06:42:44;99574.53;;;13.45;51.40
52745;BME280;38637;49.984;20.426;2023-05-10T06:45:10;99574.53;;;13.50;51.35
52745;BME280;38637;49.984;20.426;2023-05-10T06:47:36;99573.69;;;13.55;50.74
52745;BME280;38637;49.984;20.426;2023-05-10T06:50:01;99576.44;;;13.60;50.87
52745;BME280;38637;49.984;20.426;2023-05-10T06:52:26;99578.91;;;13.67;51.25
52745;BME280;38637;49.984;20.426;2023-05-10T06:54:52;99576.97;;;13.72;51.26
52745;BME280;38637;49.984;20.426;2023-05-10T06:57:17;99584.09;;;13.78;50.63
52745;BME280;38637;49.984;20.426;2023-05-10T06:59:43;99581.63;;;13.82;50.53
52745;BME280;38637;49.984;20.426;2023-05-10T07:02:09;99575.81;;;13.89;50.54
52745;BME280;38637;49.984;20.426;2023-05-10T07:04:34;99590.63;;;13.98;51.46
52745;BME280;38637;49.984;20.426;2023-05-10T07:06:59;99586.78;;;14.04;50.27
52745;BME280;38637;49.984;20.426;2023-05-10T07:09:25;99582.91;;;14.10;50.03
52745;BME280;38637;49.984;20.426;2023-05-10T07:11:50;99586.47;;;14.16;50.04
52745;BME280;38637;49.984;20.426;2023-05-10T07:14:15;99582.88;;;14.20;49.28
52745;BME280;38637;49.984;20.426;2023-05-10T07:16:41;99581.22;;;14.24;49.36
52745;BME280;38637;49.984;20.426;2023-05-10T07:19:06;99585.59;;;14.31;49.65
52745;BME280;38637;49.984;20.426;2023-05-10T07:21:32;99586.13;;;14.33;48.86
52745;BME280;38637;49.984;20.426;2023-05-10T07:23:57;99587.22;;;14.37;48.42
52745;BME280;38637;49.984;20.426;2023-05-10T07:26:22;99584.72;;;14.35;48.87
52745;BME280;38637;49.984;20.426;2023-05-10T07:28:49;99580.28;;;14.44;47.68
52745;BME280;38637;49.984;20.426;2023-05-10T07:31:14;99587.97;;;14.47;47.12
52745;BME280;38637;49.984;20.426;2023-05-10T07:33:39;99586.34;;;14.52;47.90
52745;BME280;38637;49.984;20.426;2023-05-10T07:36:05;99583.03;;;14.55;47.21
52745;BME280;38637;49.984;20.426;2023-05-10T07:38:30;99587.16;;;14.57;46.96
52745;BME280;38637;49.984;20.426;2023-05-10T07:40:55;99583.00;;;14.60;46.17
52745;BME280;38637;49.984;20.426;2023-05-10T07:43:21;99588.78;;;14.63;46.85
52745;BME280;38637;49.984;20.426;2023-05-10T07:45:46;99561.88;;;14.55;47.40
52745;BME280;38637;49.984;20.426;2023-05-10T07:48:11;99574.16;;;14.73;47.55
52745;BME280;38637;49.984;20.426;2023-05-10T07:50:37;99586.44;;;14.81;46.96
52745;BME280;38637;49.984;20.426;2023-05-10T07:53:02;99588.63;;;14.84;46.51
52745;BME280;38637;49.984;20.426;2023-05-10T07:55:27;99570.19;;;14.84;46.66
52745;BME280;38637;49.984;20.426;2023-05-10T07:57:53;99575.44;;;14.86;45.83
52745;BME280;38637;49.984;20.426;2023-05-10T08:00:19;99583.66;;;14.91;46.15
52745;BME280;38637;49.984;20.426;2023-05-10T08:02:45;99579.22;;;14.95;46.38
52745;BME280;38637;49.984;20.426;2023-05-10T08:05:11;99577.84;;;14.98;46.95
52745;BME280;38637;49.984;20.426;2023-05-10T08:07:36;99569.28;;;14.99;46.27
52745;BME280;38637;49.984;20.426;2023-05-10T08:10:02;99579.47;;;14.99;45.75
52745;BME280;38637;49.984;20.426;2023-05-10T08:12:28;99579.44;;;15.04;47.32
52745;BME280;38637;49.984;20.426;2023-05-10T08:14:53;99581.63;;;15.07;46.18
52745;BME280;38637;49.984;20.426;2023-05-10T08:17:18;99576.63;;;15.09;45.26
52745;BME280;38637;49.984;20.426;2023-05-10T08:19:44;99583.50;;;15.11;46.19
52745;BME280;38637;49.984;20.426;2023-05-10T08:22:09;99577.97;;;15.16;47.22
52745;BME280;38637;49.984;20.426;2023-05-10T08:24:35;99577.94;;;15.22;46.56
52745;BME280;38637;49.984;20.426;2023-05-10T08:27:04;99577.94;;;15.22;46.05
52745;BME280;38637;49.984;20.426;2023-05-10T08:29:29;99565.25;;;15.26;45.21
52745;BME280;38637;49.984;20.426;2023-05-10T08:31:55;99575.09;;;15.32;45.55
52745;BME280;38637;49.984;20.426;2023-05-10T08:34:20;99567.63;;;15.37;45.75
52745;BME280;38637;49.984;20.426;2023-05-10T08:36:45;99574.72;;;15.44;44.64
52745;BME280;38637;49.984;20.426;2023-05-10T08:39:11;99577.72;;;15.47;44.96
52745;BME280;38637;49.984;20.426;2023-05-10T08:41:38;99567.25;;;15.49;44.49
52745;BME280;38637;49.984;20.426;2023-05-10T08:44:04;99571.88;;;15.54;44.21
52745;BME280;38637;49.984;20.426;2023-05-10T08:46:31;99571.28;;;15.57;43.75
52745;BME280;38637;49.984;20.426;2023-05-10T08:49:02;99568.19;;;15.63;44.00
52745;BME280;38637;49.984;20.426;2023-05-10T08:51:31;99565.97;;;15.71;44.36
52745;BME280;38637;49.984;20.426;2023-05-10T08:53:59;99566.16;;;15.79;44.37
52745;BME280;38637;49.984;20.426;2023-05-10T08:56:25;99561.94;;;15.87;43.74
52745;BME280;38637;49.984;20.426;2023-05-10T08:58:51;99563.25;;;15.95;43.21
52745;BME280;38637;49.984;20.426;2023-05-10T09:01:18;99568.44;;;15.96;42.91
52745;BME280;38637;49.984;20.426;2023-05-10T09:03:46;99574.13;;;15.81;42.31
52745;BME280;38637;49.984;20.426;2023-05-10T09:06:12;99567.22;;;15.83;41.77
52745;BME280;38637;49.984;20.426;2023-05-10T09:08:38;99561.41;;;15.85;41.98
52745;BME280;38637;49.984;20.426;2023-05-10T09:11:05;99570.25;;;15.82;41.03
52745;BME280;38637;49.984;20.426;2023-05-10T09:13:30;99546.00;;;15.84;40.95
52745;BME280;38637;49.984;20.426;2023-05-10T09:15:56;99559.63;;;15.94;41.26
52745;BME280;38637;49.984;20.426;2023-05-10T09:18:22;99553.22;;;16.04;40.57
52745;BME280;38637;49.984;20.426;2023-05-10T09:20:48;99546.81;;;16.08;40.62
52745;BME280;38637;49.984;20.426;2023-05-10T09:23:14;99543.41;;;16.17;40.54
52745;BME280;38637;49.984;20.426;2023-05-10T09:25:41;99554.53;;;16.30;41.03
52745;BME280;38637;49.984;20.426;2023-05-10T09:28:08;99559.03;;;16.45;41.50
52745;BME280;38637;49.984;20.426;2023-05-10T09:30:34;99544.22;;;16.41;39.53
52745;BME280;38637;49.984;20.426;2023-05-10T09:33:00;99556.81;;;16.47;39.55
52745;BME280;38637;49.984;20.426;2023-05-10T09:35:29;99555.91;;;16.52;39.13
52745;BME280;38637;49.984;20.426;2023-05-10T09:37:57;99565.38;;;16.65;39.36
52745;BME280;38637;49.984;20.426;2023-05-10T09:40:24;99553.69;;;16.73;40.14
52745;BME280;38637;49.984;20.426;2023-05-10T09:42:59;99552.47;;;16.84;40.15
52745;BME280;38637;49.984;20.426;2023-05-10T09:45:27;99548.56;;;16.85;38.82
52745;BME280;38637;49.984;20.426;2023-05-10T09:47:53;99551.94;;;16.82;39.61
52745;BME280;38637;49.984;20.426;2023-05-10T09:50:20;99559.00;;;16.88;38.79
52745;BME280;38637;49.984;20.426;2023-05-10T09:52:47;99554.03;;;16.90;38.88
52745;BME280;38637;49.984;20.426;2023-05-10T09:55:13;99549.00;;;16.92;38.53
52745;BME280;38637;49.984;20.426;2023-05-10T09:57:38;99543.84;;;17.05;38.39
52745;BME280;38637;49.984;20.426;2023-05-10T10:00:05;99553.94;;;17.14;38.39
52745;BME280;38637;49.984;20.426;2023-05-10T10:02:31;99550.03;;;17.15;36.70
52745;BME280;38637;49.984;20.426;2023-05-10T10:04:56;99534.63;;;17.14;37.72
52745;BME280;38637;49.984;20.426;2023-05-10T10:07:23;99528.69;;;17.21;38.12
52745;BME280;38637;49.984;20.426;2023-05-10T10:09:49;99534.13;;;17.26;38.57
52745;BME280;38637;49.984;20.426;2023-05-10T10:12:15;99539.00;;;17.15;38.05
52745;BME280;38637;49.984;20.426;2023-05-10T10:14:40;99526.84;;;17.16;37.51
52745;BME280;38637;49.984;20.426;2023-05-10T10:17:07;99533.91;;;17.22;37.46
52745;BME280;38637;49.984;20.426;2023-05-10T10:19:33;99526.16;;;17.25;37.72
52745;BME280;38637;49.984;20.426;2023-05-10T10:22:00;99534.38;;;17.11;36.39
52745;BME280;38637;49.984;20.426;2023-05-10T10:24:25;99526.59;;;16.99;36.81
52745;BME280;38637;49.984;20.426;2023-05-10T10:26:52;99524.38;;;17.15;37.56
52745;BME280;38637;49.984;20.426;2023-05-10T10:29:45;99529.78;;;17.39;38.91
52745;BME280;38637;49.984;20.426;2023-05-10T10:35:04;99530.31;;;17.55;37.25
52745;BME280;38637;49.984;20.426;2023-05-10T10:37:46;99526.31;;;17.47;36.29
52745;BME280;38637;49.984;20.426;2023-05-10T10:40:29;99528.06;;;17.57;37.32
52745;BME280;38637;49.984;20.426;2023-05-10T10:42:56;99521.63;;;17.61;37.49
52745;BME280;38637;49.984;20.426;2023-05-10T10:45:22;99520.00;;;17.60;37.18
52745;BME280;38637;49.984;20.426;2023-05-10T10:47:48;99518.75;;;17.53;37.00
52745;BME280;38637;49.984;20.426;2023-05-10T10:50:15;99514.44;;;17.46;36.60
52745;BME280;38637;49.984;20.426;2023-05-10T10:52:44;99507.69;;;17.39;36.89
52745;BME280;38637;49.984;20.426;2023-05-10T11:05:25;99507.75;;;18.08;37.35
52745;BME280;38637;49.984;20.426;2023-05-10T11:07:52;99504.81;;;18.04;36.72
52745;BME280;38637;49.984;20.426;2023-05-10T11:10:21;99507.97;;;17.98;36.57
52745;BME280;38637;49.984;20.426;2023-05-10T11:13:04;99505.41;;;18.01;37.47
52745;BME280;38637;49.984;20.426;2023-05-10T11:15:39;99497.94;;;18.02;38.06
52745;BME280;38637;49.984;20.426;2023-05-10T11:18:28;99507.88;;;17.89;35.64
52745;BME280;38637;49.984;20.426;2023-05-10T11:21:01;99505.19;;;17.84;36.92
52745;BME280;38637;49.984;20.426;2023-05-10T11:26:07;99507.34;;;17.87;36.61
52745;BME280;38637;49.984;20.426;2023-05-10T11:28:34;99503.69;;;17.91;36.14
52745;BME280;38637;49.984;20.426;2023-05-10T11:31:00;99494.59;;;17.91;36.52
52745;BME280;38637;49.984;20.426;2023-05-10T11:33:25;99498.34;;;17.95;36.19
52745;BME280;38637;49.984;20.426;2023-05-10T11:35:50;99501.31;;;17.99;35.96
52745;BME280;38637;49.984;20.426;2023-05-10T11:38:16;99497.75;;;17.98;35.46
52745;BME280;38637;49.984;20.426;2023-05-10T11:40:41;99487.81;;;17.97;35.67
52745;BME280;38637;49.984;20.426;2023-05-10T11:43:08;99489.25;;;17.95;34.96
52745;BME280;38637;49.984;20.426;2023-05-10T11:45:35;99485.69;;;17.94;35.08
52745;BME280;38637;49.984;20.426;2023-05-10T11:48:00;99480.34;;;17.84;34.79
52745;BME280;38637;49.984;20.426;2023-05-10T11:50:26;99470.09;;;17.71;35.41
52745;BME280;38637;49.984;20.426;2023-05-10T11:52:53;99489.41;;;17.71;35.13
52745;BME280;38637;49.984;20.426;2023-05-10T11:55:19;99485.13;;;17.64;35.44
52745;BME280;38637;49.984;20.426;2023-05-10T11:57:44;99481.22;;;17.52;34.45
52745;BME280;38637;49.984;20.426;2023-05-10T12:00:11;99477.84;;;17.55;35.75
52745;BME280;38637;49.984;20.426;2023-05-10T12:02:37;99471.41;;;17.59;35.67
52745;BME280;38637;49.984;20.426;2023-05-10T12:05:03;99478.78;;;17.64;35.27
52745;BME280;38637;49.984;20.426;2023-05-10T12:07:30;99480.00;;;17.72;35.56
52745;BME280;38637;49.984;20.426;2023-05-10T12:10:13;99470.59;;;17.73;36.23
52745;BME280;38637;49.984;20.426;2023-05-10T12:12:46;99467.97;;;17.81;36.54
52745;BME280;38637;49.984;20.426;2023-05-10T12:15:23;99470.94;;;17.85;35.66
52745;BME280;38637;49.984;20.426;2023-05-10T12:17:49;99475.00;;;17.87;35.81
52745;BME280;38637;49.984;20.426;2023-05-10T12:20:22;99464.38;;;17.81;35.27
52745;BME280;38637;49.984;20.426;2023-05-10T12:25:18;99457.41;;;17.69;35.05
52745;BME280;38637;49.984;20.426;2023-05-10T12:27:55;99466.31;;;17.80;35.81
52745;BME280;38637;49.984;20.426;2023-05-10T12:30:26;99458.25;;;17.84;36.02
52745;BME280;38637;49.984;20.426;2023-05-10T12:32:52;99453.97;;;17.91;36.55
52745;BME280;38637;49.984;20.426;2023-05-10T12:35:18;99450.38;;;17.91;35.61
52745;BME280;38637;49.984;20.426;2023-05-10T12:37:50;99440.25;;;17.86;35.19
52745;BME280;38637;49.984;20.426;2023-05-10T12:40:15;99450.88;;;17.93;35.60
52745;BME280;38637;49.984;20.426;2023-05-10T12:42:40;99432.97;;;17.90;36.09
52745;BME280;38637;49.984;20.426;2023-05-10T12:45:07;99449.75;;;17.94;35.70
52745;BME280;38637;49.984;20.426;2023-05-10T12:47:34;99444.44;;;17.98;35.55
52745;BME280;38637;49.984;20.426;2023-05-10T12:50:00;99438.19;;;17.92;34.20
52745;BME280;38637;49.984;20.426;2023-05-10T12:52:26;99437.25;;;17.97;35.05
52745;BME280;38637;49.984;20.426;2023-05-10T12:54:52;99435.00;;;17.99;34.91
52745;BME280;38637;49.984;20.426;2023-05-10T12:57:18;99426.81;;;17.94;35.47
52745;BME280;38637;49.984;20.426;2023-05-10T12:59:44;99422.31;;;17.98;35.12
52745;BME280;38637;49.984;20.426;2023-05-10T13:02:09;99432.75;;;18.01;34.76
52745;BME280;38637;49.984;20.426;2023-05-10T13:04:35;99437.66;;;18.04;34.86
52745;BME280;38637;49.984;20.426;2023-05-10T13:07:04;99439.28;;;18.05;34.57
52745;BME280;38637;49.984;20.426;2023-05-10T13:09:29;99427.44;;;17.90;34.98
52745;BME280;38637;49.984;20.426;2023-05-10T13:11:55;99436.63;;;18.00;35.18
52745;BME280;38637;49.984;20.426;2023-05-10T13:14:20;99429.69;;;18.02;34.86
52745;BME280;38637;49.984;20.426;2023-05-10T13:16:46;99417.19;;;18.05;34.90
52745;BME280;38637;49.984;20.426;2023-05-10T13:19:12;99416.47;;;18.13;35.26
52745;BME280;38637;49.984;20.426;2023-05-10T13:21:38;99418.19;;;18.23;35.83